KDOV/DOV METAR and TAF weather

Enter ICAO airport designator
Station Type Date Time Source
KDOV METAR 2019/02/23 02:56 UTC NOAA

KDOV 230256Z AUTO 32004KT 10SM CLR 04/M02 A3044 RMK AO2 SLPNO T00401024 50004 $


Station Type Date Time Source
KDOV Decoded METAR 2019/02/23 02:56 UTC NOAA

Dover Air Force Base, DE, United States (KDOV) 39-08N 075-28W
Feb 22, 2019 - 09:56 PM EST / 2019.02.23 0256 UTC
Wind: from the NW (320 degrees) at 5 MPH (4 KT):0
Visibility: 10 mile(s):0
Sky conditions: clear
Temperature: 39.2 F (4.0 C)
Dew Point: 27.7 F (-2.4 C)
Relative Humidity: 62%
Pressure (altimeter): 30.44 in. Hg (1030 hPa)
Pressure tendency: 0.01 inches (0.4 hPa) higher than three hours ago
ob: KDOV 230256Z AUTO 32004KT 10SM CLR 04/M02 A3044 RMK AO2 SLPNO T00401024 50004
cycle: 3

Station Type Date Time Source
KDOV TAF 2019/02/23 00:06 UTC NOAA

TAF KDOV 230000Z 2300/2406 34006KT 9999 SCT200 QNH3042INS WND 05006KT AFT 2309
BECMG 2314/2315 09009KT 9999 BKN150 QNH3033INS
BECMG 2320/2321 11009KT 9999 FEW015 BKN050 OVC070 610909 QNH3029INS
BECMG 2323/2324 09009KT 8000 -RA SCT015 OVC025 620906 QNH3016INS
BECMG 2402/2403 09009KT 8000 -RA OVC007 QNH2998INS TX08/2318Z TN01/2312Z


Example: see airport list